createdAt,value
2019-03-27T00:01:08.392Z,29.40
2019-03-27T00:06:11.091Z,44.00
2019-03-27T00:11:16.243Z,35.60
2019-03-27T00:16:19.644Z,31.57
2019-03-27T00:21:23.187Z,35.30
2019-03-27T00:26:28.729Z,35.13
2019-03-27T00:31:33.118Z,23.60
2019-03-27T00:36:39.105Z,25.50
2019-03-27T00:41:41.762Z,27.97
2019-03-27T00:46:44.665Z,31.77
2019-03-27T00:51:47.231Z,22.77
2019-03-27T00:56:49.912Z,26.37
2019-03-27T01:01:52.743Z,32.97
2019-03-27T01:06:58.482Z,22.60
2019-03-27T01:12:01.088Z,27.43
2019-03-27T01:17:06.655Z,26.50
2019-03-27T01:22:09.201Z,30.03
2019-03-27T01:27:11.798Z,38.03
2019-03-27T01:32:18.901Z,25.47
2019-03-27T01:37:21.603Z,14.70
2019-03-27T01:42:24.170Z,20.90
2019-03-27T01:47:29.773Z,25.07
2019-03-27T01:52:37.869Z,24.53
2019-03-27T01:57:42.690Z,19.40
2019-03-27T02:02:47.995Z,22.07
2019-03-27T02:07:50.583Z,22.93
2019-03-27T02:12:58.365Z,27.10
2019-03-27T02:18:00.954Z,24.03
2019-03-27T02:23:03.553Z,28.43
2019-03-27T02:28:06.174Z,26.23
2019-03-27T02:33:08.995Z,26.83
2019-03-27T02:38:11.559Z,23.20
2019-03-27T02:43:14.105Z,22.03
2019-03-27T02:48:16.672Z,18.53
2019-03-27T02:53:19.377Z,22.57
2019-03-27T02:58:21.972Z,23.57
2019-03-27T03:03:26.935Z,16.33
2019-03-27T03:08:29.556Z,28.37
2019-03-27T03:13:32.236Z,27.67
2019-03-27T03:18:39.578Z,22.27
2019-03-27T03:23:42.331Z,22.03
2019-03-27T03:28:47.940Z,25.63
2019-03-27T03:33:50.622Z,19.63
2019-03-27T03:38:53.161Z,26.67
2019-03-27T03:43:55.785Z,26.37
2019-03-27T03:48:58.382Z,26.23
2019-03-27T03:54:01.687Z,25.50
2019-03-27T03:59:05.160Z,26.03
2019-03-27T04:04:09.312Z,21.63
2019-03-27T04:09:13.079Z,31.13
2019-03-27T04:14:15.674Z,30.40
2019-03-27T04:19:20.806Z,25.07
2019-03-27T04:24:26.352Z,19.40
2019-03-27T04:29:30.088Z,30.77
2019-03-27T04:34:35.891Z,34.67
2019-03-27T04:39:38.437Z,27.30
2019-03-27T04:44:43.712Z,25.53
2019-03-27T04:49:46.249Z,32.63
2019-03-27T04:54:49.004Z,33.37
2019-03-27T04:59:51.590Z,26.47
2019-03-27T05:04:56.568Z,33.57
2019-03-27T05:09:59.163Z,31.97
2019-03-27T05:15:01.962Z,38.30
2019-03-27T05:20:06.018Z,35.10
2019-03-27T05:25:09.089Z,30.67
2019-03-27T05:30:13.463Z,27.67
2019-03-27T05:35:17.752Z,32.37
2019-03-27T05:40:20.323Z,40.93
2019-03-27T05:45:23.206Z,39.97
2019-03-27T05:50:25.773Z,38.07
2019-03-27T05:55:28.479Z,34.43
2019-03-27T06:00:33.415Z,34.27
2019-03-27T06:05:35.783Z,37.97
2019-03-27T06:10:38.332Z,33.37
2019-03-27T06:15:44.992Z,41.93
2019-03-27T06:20:46.881Z,35.63
2019-03-27T06:25:49.583Z,39.93
2019-03-27T06:30:52.201Z,48.20
2019-03-27T06:35:55.073Z,40.10
2019-03-27T06:40:57.766Z,36.97
2019-03-27T06:46:00.663Z,42.07
2019-03-27T06:51:03.448Z,47.63
2019-03-27T06:56:06.095Z,38.47
2019-03-27T07:01:08.732Z,37.13
2019-03-27T07:06:11.678Z,37.30
2019-03-27T07:11:14.268Z,38.97
2019-03-27T07:16:19.392Z,34.90
2019-03-27T07:21:22.053Z,38.07
2019-03-27T07:26:27.605Z,43.73
2019-03-27T07:31:30.163Z,38.90
2019-03-27T07:36:33.114Z,36.63
2019-03-27T07:41:36.168Z,34.83
2019-03-27T07:46:38.813Z,23.97
2019-03-27T07:51:42.841Z,33.10
2019-03-27T07:56:45.569Z,29.67
2019-03-27T08:01:51.035Z,35.63
2019-03-27T08:06:55.334Z,21.40
2019-03-27T08:11:58.533Z,25.53
2019-03-27T08:17:03.360Z,21.57
2019-03-27T08:22:08.350Z,17.67
2019-03-27T08:27:15.271Z,18.80
2019-03-27T08:32:17.766Z,13.47
2019-03-27T08:37:20.345Z,12.10
2019-03-27T08:42:23.377Z,16.57
2019-03-27T08:47:28.739Z,15.87
2019-03-27T08:52:31.844Z,17.10
2019-03-27T08:57:34.440Z,22.10
2019-03-27T09:02:40.441Z,18.20
2019-03-27T09:07:43.014Z,12.67
2019-03-27T09:12:52.073Z,15.87
2019-03-27T09:17:56.113Z,10.33
2019-03-27T09:22:59.816Z,9.63
2019-03-27T09:28:07.499Z,14.90
2019-03-27T09:33:10.426Z,13.00
2019-03-27T09:38:12.979Z,14.27
2019-03-27T09:43:17.897Z,14.40
2019-03-27T09:48:20.665Z,18.80
2019-03-27T09:53:24.679Z,11.17
2019-03-27T09:58:29.368Z,16.43
2019-03-27T10:03:34.929Z,18.53
2019-03-27T10:08:37.915Z,16.40
2019-03-27T10:13:41.022Z,11.00
2019-03-27T10:18:43.639Z,13.57
2019-03-27T10:23:49.679Z,14.33
2019-03-27T10:28:52.443Z,18.33
2019-03-27T10:33:55.187Z,12.97
2019-03-27T10:38:57.747Z,11.80
2019-03-27T10:44:00.320Z,13.43
2019-03-27T10:49:02.888Z,12.13
2019-03-27T10:54:07.335Z,13.55
2019-03-27T10:59:13.081Z,18.90
2019-03-27T11:04:16.814Z,17.82
2019-03-27T11:09:19.503Z,16.57
2019-03-27T11:14:22.334Z,17.83
2019-03-27T11:19:25.098Z,16.37
2019-03-27T11:24:28.110Z,19.83
2019-03-27T11:29:30.719Z,20.93
2019-03-27T11:34:36.431Z,21.97
2019-03-27T11:39:39.327Z,15.87
2019-03-27T11:44:42.327Z,22.30
2019-03-27T11:49:47.661Z,22.90
2019-03-27T11:54:52.946Z,21.07
2019-03-27T11:59:57.015Z,19.00
2019-03-27T12:05:01.683Z,16.70
2019-03-27T12:10:05.874Z,23.53
2019-03-27T12:15:09.192Z,18.73
2019-03-27T12:20:13.358Z,14.57
2019-03-27T12:25:16.573Z,19.83
2019-03-27T12:30:21.101Z,19.10
2019-03-27T12:35:25.346Z,21.43
2019-03-27T12:40:28.005Z,20.87
2019-03-27T12:45:31.212Z,17.33
2019-03-27T12:50:35.790Z,17.50
2019-03-27T12:55:38.501Z,13.30
2019-03-27T13:00:41.589Z,22.07
2019-03-27T13:05:50.431Z,20.63
2019-03-27T13:10:54.056Z,14.30
2019-03-27T13:15:56.891Z,17.70
2019-03-27T13:20:59.859Z,16.97
2019-03-27T13:26:02.464Z,17.60
2019-03-27T13:31:06.620Z,19.93
2019-03-27T13:36:12.334Z,20.30
2019-03-27T13:41:15.058Z,25.53
2019-03-27T13:46:17.731Z,15.83
2019-03-27T13:51:20.393Z,19.17
2019-03-27T13:56:23.255Z,19.67
2019-03-27T14:01:25.835Z,14.27
2019-03-27T14:06:28.915Z,18.23
2019-03-27T14:11:31.544Z,17.97
2019-03-27T14:16:34.557Z,16.20
2019-03-27T14:21:37.290Z,16.30
2019-03-27T14:26:45.376Z,16.70
2019-03-27T14:31:44.627Z,17.80
2019-03-27T14:36:47.329Z,13.93
2019-03-27T14:41:51.019Z,15.90
2019-03-27T14:46:56.229Z,12.60
2019-03-27T14:52:08.056Z,18.17
2019-03-27T14:57:03.840Z,15.17
2019-03-27T15:02:09.691Z,15.97
2019-03-27T15:07:12.424Z,15.73
2019-03-27T15:12:17.780Z,11.40
2019-03-27T15:17:20.442Z,10.23
2019-03-27T15:22:23.605Z,11.60
2019-03-27T15:27:26.509Z,10.70
2019-03-27T15:32:29.169Z,8.33
2019-03-27T15:37:31.748Z,12.90
2019-03-27T15:42:36.135Z,13.40
2019-03-27T15:47:38.851Z,13.97
2019-03-27T15:52:41.520Z,14.07
2019-03-27T15:57:44.140Z,12.10
2019-03-27T16:02:52.937Z,12.67
2019-03-27T16:07:56.745Z,11.13
2019-03-27T16:12:59.410Z,11.00
2019-03-27T16:18:02.192Z,15.17
2019-03-27T16:23:07.252Z,12.43
2019-03-27T16:28:09.813Z,7.53
2019-03-27T16:33:12.769Z,7.63
2019-03-27T16:38:15.399Z,9.47
2019-03-27T16:43:18.864Z,7.20
2019-03-27T16:48:21.541Z,10.57
2019-03-27T16:53:24.706Z,9.77
2019-03-27T16:58:27.597Z,10.03
2019-03-27T17:03:30.268Z,7.93
2019-03-27T17:08:32.827Z,11.33
2019-03-27T17:13:35.736Z,8.30
2019-03-27T17:18:38.532Z,11.33
2019-03-27T17:23:41.227Z,11.43
2019-03-27T17:28:43.970Z,13.80
2019-03-27T17:33:46.701Z,11.23
2019-03-27T17:38:49.272Z,10.73
2019-03-27T17:43:52.087Z,12.20
2019-03-27T17:48:54.834Z,15.97
2019-03-27T17:53:57.695Z,13.57
2019-03-27T17:59:00.252Z,13.33
2019-03-27T18:04:02.979Z,13.03
2019-03-27T18:09:07.453Z,18.17
2019-03-27T18:14:10.655Z,19.70
2019-03-27T18:19:14.451Z,19.80
2019-03-27T18:24:17.049Z,18.73
2019-03-27T18:29:22.938Z,16.07
2019-03-27T18:34:30.718Z,21.73
2019-03-27T18:39:33.397Z,21.50
2019-03-27T18:44:36.243Z,19.57
2019-03-27T18:49:40.724Z,17.53
2019-03-27T18:54:43.633Z,20.90
2019-03-27T18:59:47.298Z,21.23
2019-03-27T19:04:50.387Z,21.53
2019-03-27T19:09:53.264Z,17.77
2019-03-27T19:14:56.097Z,18.70
2019-03-27T19:19:58.653Z,17.30
2019-03-27T19:25:01.365Z,19.73
2019-03-27T19:30:05.223Z,20.37
2019-03-27T19:35:08.391Z,19.80
2019-03-27T19:40:11.511Z,21.13
2019-03-27T19:45:14.252Z,17.00
2019-03-27T19:50:18.200Z,20.87
2019-03-27T19:55:20.930Z,21.97
2019-03-27T20:00:23.796Z,19.43
2019-03-27T20:05:31.180Z,22.27
2019-03-27T20:10:35.989Z,25.10
2019-03-27T20:15:38.715Z,29.80
2019-03-27T20:20:41.374Z,23.97
2019-03-27T20:25:46.820Z,25.67
2019-03-27T20:30:49.547Z,32.57
2019-03-27T20:35:52.472Z,31.97
2019-03-27T20:40:55.046Z,29.37
2019-03-27T20:45:58.004Z,28.93
2019-03-27T20:51:01.852Z,22.73
2019-03-27T20:56:04.572Z,29.40
2019-03-27T21:01:08.960Z,28.30
2019-03-27T21:06:11.913Z,31.40
2019-03-27T21:11:14.588Z,28.57
2019-03-27T21:16:18.168Z,35.63
2019-03-27T21:21:22.528Z,32.30
2019-03-27T21:26:25.150Z,35.87
2019-03-27T21:31:27.820Z,40.47
2019-03-27T21:36:33.497Z,38.70
2019-03-27T21:41:36.423Z,46.47
2019-03-27T21:46:39.640Z,39.77
2019-03-27T21:51:42.506Z,38.23
2019-03-27T21:56:45.289Z,35.37
2019-03-27T22:01:47.861Z,42.87
2019-03-27T22:06:50.566Z,41.97
2019-03-27T22:11:56.802Z,44.90
2019-03-27T22:16:59.640Z,47.50
2019-03-27T22:22:02.397Z,52.93
2019-03-27T22:27:05.039Z,53.97
2019-03-27T22:32:10.604Z,46.90
2019-03-27T22:37:13.201Z,47.73
2019-03-27T22:42:15.775Z,53.47
2019-03-27T22:47:21.405Z,50.47
2019-03-27T22:52:24.588Z,56.67
2019-03-27T22:57:29.468Z,53.00
2019-03-27T23:02:35.649Z,58.57
2019-03-27T23:07:38.190Z,51.30
2019-03-27T23:12:41.229Z,56.83
2019-03-27T23:17:43.904Z,57.50
2019-03-27T23:22:49.057Z,61.53
2019-03-27T23:27:51.621Z,53.70
2019-03-27T23:32:54.387Z,55.10
2019-03-27T23:37:57.185Z,52.83
2019-03-27T23:43:01.618Z,57.83
2019-03-27T23:48:04.258Z,59.80
2019-03-27T23:53:07.118Z,56.77
2019-03-27T23:58:09.790Z,61.60
